sensor_id;sensor_type;location;lat;lon;timestamp;pressure;altitude;pressure_sealevel;temperature;humidity
60646;BME280;46462;32.608;-117.032;2022-10-16T00:02:18;99148.28;;;27.11;46.11
60646;BME280;46462;32.608;-117.032;2022-10-16T00:04:49;99148.26;;;27.11;46.19
60646;BME280;46462;32.608;-117.032;2022-10-16T00:07:19;99145.75;;;27.12;46.34
60646;BME280;46462;32.608;-117.032;2022-10-16T00:09:49;99135.79;;;27.20;45.81
60646;BME280;46462;32.608;-117.032;2022-10-16T00:12:19;99133.85;;;27.18;45.85
60646;BME280;46462;32.608;-117.032;2022-10-16T00:14:49;99134.53;;;27.16;45.88
60646;BME280;46462;32.608;-117.032;2022-10-16T00:17:19;99129.48;;;27.15;45.84
60646;BME280;46462;32.608;-117.032;2022-10-16T00:19:50;99123.71;;;27.17;45.87
60646;BME280;46462;32.608;-117.032;2022-10-16T00:22:19;99119.85;;;27.19;45.82
60646;BME280;46462;32.608;-117.032;2022-10-16T00:24:50;99119.02;;;27.18;45.82
60646;BME280;46462;32.608;-117.032;2022-10-16T00:27:20;99115.14;;;27.20;45.92
60646;BME280;46462;32.608;-117.032;2022-10-16T00:29:50;99116.37;;;27.13;46.19
60646;BME280;46462;32.608;-117.032;2022-10-16T00:32:20;99119.76;;;27.08;46.26
60646;BME280;46462;32.608;-117.032;2022-10-16T00:34:50;99126.57;;;27.15;46.03
60646;BME280;46462;32.608;-117.032;2022-10-16T00:37:21;99129.65;;;27.17;45.89
60646;BME280;46462;32.608;-117.032;2022-10-16T00:39:50;99135.25;;;27.17;45.87
60646;BME280;46462;32.608;-117.032;2022-10-16T00:42:21;99136.67;;;27.17;45.82
60646;BME280;46462;32.608;-117.032;2022-10-16T00:44:52;99143.13;;;27.10;46.07
60646;BME280;46462;32.608;-117.032;2022-10-16T00:47:26;99147.93;;;27.08;46.09
60646;BME280;46462;32.608;-117.032;2022-10-16T00:49:56;99151.80;;;27.09;46.02
60646;BME280;46462;32.608;-117.032;2022-10-16T00:52:21;99154.53;;;27.10;46.00
60646;BME280;46462;32.608;-117.032;2022-10-16T00:54:53;99156.67;;;27.08;46.08
60646;BME280;46462;32.608;-117.032;2022-10-16T00:57:21;99157.70;;;27.09;46.01
60646;BME280;46462;32.608;-117.032;2022-10-16T00:59:52;99153.99;;;27.07;46.10
60646;BME280;46462;32.608;-117.032;2022-10-16T01:02:22;99145.78;;;27.16;45.85
60646;BME280;46462;32.608;-117.032;2022-10-16T01:04:53;99137.25;;;27.11;45.99
60646;BME280;46462;32.608;-117.032;2022-10-16T01:07:32;99127.36;;;27.11;45.93
60646;BME280;46462;32.608;-117.032;2022-10-16T01:10:02;99120.03;;;27.11;45.98
60646;BME280;46462;32.608;-117.032;2022-10-16T01:12:29;99125.21;;;27.10;46.14
60646;BME280;46462;32.608;-117.032;2022-10-16T01:14:55;99120.44;;;27.04;46.23
60646;BME280;46462;32.608;-117.032;2022-10-16T01:17:26;99121.73;;;27.04;46.22
60646;BME280;46462;32.608;-117.032;2022-10-16T01:20:04;99125.64;;;27.04;46.19
60646;BME280;46462;32.608;-117.032;2022-10-16T01:22:26;99138.85;;;26.97;46.41
60646;BME280;46462;32.608;-117.032;2022-10-16T01:24:55;99157.35;;;27.06;46.06
60646;BME280;46462;32.608;-117.032;2022-10-16T01:27:26;99167.51;;;27.19;45.72
60646;BME280;46462;32.608;-117.032;2022-10-16T01:29:56;99168.31;;;27.18;45.70
60646;BME280;46462;32.608;-117.032;2022-10-16T01:32:31;99169.01;;;27.19;45.67
60646;BME280;46462;32.608;-117.032;2022-10-16T01:34:57;99174.06;;;27.13;45.84
60646;BME280;46462;32.608;-117.032;2022-10-16T01:37:31;99173.88;;;27.13;45.80
60646;BME280;46462;32.608;-117.032;2022-10-16T01:39:58;99175.71;;;27.14;45.76
60646;BME280;46462;32.608;-117.032;2022-10-16T01:42:30;99177.76;;;27.15;45.76
60646;BME280;46462;32.608;-117.032;2022-10-16T01:44:55;99188.40;;;27.14;45.78
60646;BME280;46462;32.608;-117.032;2022-10-16T01:47:25;99194.44;;;27.08;45.91
60646;BME280;46462;32.608;-117.032;2022-10-16T01:49:56;99201.52;;;27.06;46.01
60646;BME280;46462;32.608;-117.032;2022-10-16T01:52:26;99210.47;;;27.03;46.13
60646;BME280;46462;32.608;-117.032;2022-10-16T01:54:56;99219.57;;;27.02;46.11
60646;BME280;46462;32.608;-117.032;2022-10-16T01:57:25;99224.71;;;27.02;46.05
60646;BME280;46462;32.608;-117.032;2022-10-16T01:59:58;99232.55;;;27.04;46.03
60646;BME280;46462;32.608;-117.032;2022-10-16T02:02:28;99237.82;;;27.02;46.05
60646;BME280;46462;32.608;-117.032;2022-10-16T02:05:00;99245.55;;;27.03;46.02
60646;BME280;46462;32.608;-117.032;2022-10-16T02:07:25;99249.27;;;27.07;45.88
60646;BME280;46462;32.608;-117.032;2022-10-16T02:09:55;99251.90;;;27.04;45.96
60646;BME280;46462;32.608;-117.032;2022-10-16T02:12:30;99250.89;;;27.03;45.91
60646;BME280;46462;32.608;-117.032;2022-10-16T02:14:56;99248.99;;;27.02;45.97
60646;BME280;46462;32.608;-117.032;2022-10-16T02:17:26;99251.39;;;26.97;46.19
60646;BME280;46462;32.608;-117.032;2022-10-16T02:19:57;99255.40;;;26.99;46.03
60646;BME280;46462;32.608;-117.032;2022-10-16T02:22:28;99256.21;;;27.01;45.92
60646;BME280;46462;32.608;-117.032;2022-10-16T02:25:01;99260.66;;;27.01;45.91
60646;BME280;46462;32.608;-117.032;2022-10-16T02:27:30;99261.96;;;27.01;45.89
60646;BME280;46462;32.608;-117.032;2022-10-16T02:30:02;99260.25;;;27.01;45.90
60646;BME280;46462;32.608;-117.032;2022-10-16T02:32:30;99246.19;;;27.01;45.85
60646;BME280;46462;32.608;-117.032;2022-10-16T02:34:57;99234.82;;;27.00;45.86
60646;BME280;46462;32.608;-117.032;2022-10-16T02:37:27;99236.31;;;26.99;45.90
60646;BME280;46462;32.608;-117.032;2022-10-16T02:39:57;99241.32;;;27.00;45.81
60646;BME280;46462;32.608;-117.032;2022-10-16T02:42:33;99237.97;;;27.02;45.76
60646;BME280;46462;32.608;-117.032;2022-10-16T02:44:57;99236.70;;;27.03;45.72
60646;BME280;46462;32.608;-117.032;2022-10-16T02:47:27;99235.34;;;27.03;45.70
60646;BME280;46462;32.608;-117.032;2022-10-16T02:49:58;99232.24;;;27.01;45.75
60646;BME280;46462;32.608;-117.032;2022-10-16T02:52:28;99231.82;;;27.01;45.76
60646;BME280;46462;32.608;-117.032;2022-10-16T02:54:57;99225.27;;;27.03;45.69
60646;BME280;46462;32.608;-117.032;2022-10-16T02:57:28;99217.27;;;27.01;45.74
60646;BME280;46462;32.608;-117.032;2022-10-16T02:59:58;99215.97;;;26.98;45.78
60646;BME280;46462;32.608;-117.032;2022-10-16T03:02:28;99209.14;;;27.00;45.72
60646;BME280;46462;32.608;-117.032;2022-10-16T03:04:58;99205.04;;;26.99;45.76
60646;BME280;46462;32.608;-117.032;2022-10-16T03:07:28;99205.27;;;27.02;45.70
60646;BME280;46462;32.608;-117.032;2022-10-16T03:09:58;99201.98;;;26.99;45.78
60646;BME280;46462;32.608;-117.032;2022-10-16T03:12:29;99199.82;;;26.97;45.85
60646;BME280;46462;32.608;-117.032;2022-10-16T03:14:59;99197.18;;;26.94;45.90
60646;BME280;46462;32.608;-117.032;2022-10-16T03:17:29;99193.19;;;26.96;45.81
60646;BME280;46462;32.608;-117.032;2022-10-16T03:19:59;99186.49;;;26.94;45.86
60646;BME280;46462;32.608;-117.032;2022-10-16T03:22:29;99171.32;;;26.97;45.76
60646;BME280;46462;32.608;-117.032;2022-10-16T03:24:59;99183.31;;;26.99;45.72
60646;BME280;46462;32.608;-117.032;2022-10-16T03:27:29;99211.03;;;26.97;45.74
60646;BME280;46462;32.608;-117.032;2022-10-16T03:29:59;99215.70;;;26.97;45.75
60646;BME280;46462;32.608;-117.032;2022-10-16T03:32:29;99215.24;;;26.96;45.75
60646;BME280;46462;32.608;-117.032;2022-10-16T03:35:00;99214.28;;;26.98;45.72
60646;BME280;46462;32.608;-117.032;2022-10-16T03:37:30;99216.12;;;26.98;45.72
60646;BME280;46462;32.608;-117.032;2022-10-16T03:40:00;99230.16;;;26.96;45.74
60646;BME280;46462;32.608;-117.032;2022-10-16T03:42:30;99247.18;;;26.95;45.76
60646;BME280;46462;32.608;-117.032;2022-10-16T03:45:00;99257.83;;;26.96;45.79
60646;BME280;46462;32.608;-117.032;2022-10-16T03:47:30;99251.68;;;26.96;45.82
60646;BME280;46462;32.608;-117.032;2022-10-16T03:50:01;99250.46;;;26.94;45.85
60646;BME280;46462;32.608;-117.032;2022-10-16T03:52:30;99257.70;;;26.92;45.91
60646;BME280;46462;32.608;-117.032;2022-10-16T03:55:01;99265.92;;;26.91;45.90
60646;BME280;46462;32.608;-117.032;2022-10-16T03:57:31;99268.16;;;26.92;45.89
60646;BME280;46462;32.608;-117.032;2022-10-16T04:00:01;99273.65;;;26.96;45.79
60646;BME280;46462;32.608;-117.032;2022-10-16T04:02:31;99273.88;;;26.91;45.88
60646;BME280;46462;32.608;-117.032;2022-10-16T04:05:01;99264.98;;;26.92;45.87
60646;BME280;46462;32.608;-117.032;2022-10-16T04:07:31;99255.46;;;26.90;45.99
60646;BME280;46462;32.608;-117.032;2022-10-16T04:10:01;99244.13;;;26.89;45.91
60646;BME280;46462;32.608;-117.032;2022-10-16T04:12:32;99250.25;;;26.92;45.89
60646;BME280;46462;32.608;-117.032;2022-10-16T04:15:02;99257.92;;;26.89;46.04
60646;BME280;46462;32.608;-117.032;2022-10-16T04:17:32;99257.39;;;26.91;45.95
60646;BME280;46462;32.608;-117.032;2022-10-16T04:20:02;99261.12;;;26.89;45.92
60646;BME280;46462;32.608;-117.032;2022-10-16T04:22:32;99266.21;;;26.90;45.94
60646;BME280;46462;32.608;-117.032;2022-10-16T04:25:02;99263.17;;;26.91;45.93
60646;BME280;46462;32.608;-117.032;2022-10-16T04:27:32;99261.51;;;26.92;45.88
60646;BME280;46462;32.608;-117.032;2022-10-16T04:30:08;99258.32;;;26.88;45.95
60646;BME280;46462;32.608;-117.032;2022-10-16T04:32:37;99266.90;;;26.91;45.85
60646;BME280;46462;32.608;-117.032;2022-10-16T04:35:08;99277.50;;;26.86;45.95
60646;BME280;46462;32.608;-117.032;2022-10-16T04:37:37;99285.20;;;26.88;45.93
60646;BME280;46462;32.608;-117.032;2022-10-16T04:40:08;99284.20;;;26.84;46.05
60646;BME280;46462;32.608;-117.032;2022-10-16T04:42:37;99290.42;;;26.86;46.01
60646;BME280;46462;32.608;-117.032;2022-10-16T04:45:08;99296.73;;;26.87;46.00
60646;BME280;46462;32.608;-117.032;2022-10-16T04:47:38;99299.38;;;26.88;45.98
60646;BME280;46462;32.608;-117.032;2022-10-16T04:50:09;99301.07;;;26.86;45.99
60646;BME280;46462;32.608;-117.032;2022-10-16T04:52:38;99303.56;;;26.85;46.02
60646;BME280;46462;32.608;-117.032;2022-10-16T04:55:09;99302.46;;;26.84;46.00
60646;BME280;46462;32.608;-117.032;2022-10-16T04:57:38;99301.54;;;26.83;46.02
60646;BME280;46462;32.608;-117.032;2022-10-16T05:00:10;99305.64;;;26.82;46.04
60646;BME280;46462;32.608;-117.032;2022-10-16T05:02:39;99306.13;;;26.82;46.00
60646;BME280;46462;32.608;-117.032;2022-10-16T05:05:09;99316.46;;;26.84;45.93
60646;BME280;46462;32.608;-117.032;2022-10-16T05:07:39;99324.95;;;26.83;45.95
60646;BME280;46462;32.608;-117.032;2022-10-16T05:10:09;99331.36;;;26.82;46.00
60646;BME280;46462;32.608;-117.032;2022-10-16T05:12:39;99336.28;;;26.83;46.00
60646;BME280;46462;32.608;-117.032;2022-10-16T05:15:10;99337.13;;;26.74;46.18
60646;BME280;46462;32.608;-117.032;2022-10-16T05:17:39;99334.87;;;26.79;46.04
60646;BME280;46462;32.608;-117.032;2022-10-16T05:20:10;99338.16;;;26.82;45.94
60646;BME280;46462;32.608;-117.032;2022-10-16T05:22:40;99337.76;;;26.83;45.89
60646;BME280;46462;32.608;-117.032;2022-10-16T05:25:10;99333.65;;;26.82;45.92
60646;BME280;46462;32.608;-117.032;2022-10-16T05:27:40;99341.24;;;26.86;45.81
60646;BME280;46462;32.608;-117.032;2022-10-16T05:30:10;99351.37;;;26.81;45.96
60646;BME280;46462;32.608;-117.032;2022-10-16T05:32:40;99346.48;;;26.82;45.91
60646;BME280;46462;32.608;-117.032;2022-10-16T05:35:11;99344.62;;;26.81;45.94
60646;BME280;46462;32.608;-117.032;2022-10-16T05:37:40;99342.25;;;26.84;45.84
60646;BME280;46462;32.608;-117.032;2022-10-16T05:40:12;99339.90;;;26.80;45.90
60646;BME280;46462;32.608;-117.032;2022-10-16T05:42:41;99342.51;;;26.83;45.84
60646;BME280;46462;32.608;-117.032;2022-10-16T05:45:11;99344.31;;;26.84;45.82
60646;BME280;46462;32.608;-117.032;2022-10-16T05:47:41;99337.61;;;26.81;45.92
60646;BME280;46462;32.608;-117.032;2022-10-16T05:50:11;99332.79;;;26.78;45.96
60646;BME280;46462;32.608;-117.032;2022-10-16T05:52:41;99323.38;;;26.77;45.97
60646;BME280;46462;32.608;-117.032;2022-10-16T05:55:12;99332.88;;;26.79;45.91
60646;BME280;46462;32.608;-117.032;2022-10-16T05:57:42;99347.19;;;26.77;45.97
60646;BME280;46462;32.608;-117.032;2022-10-16T06:00:12;99356.74;;;26.78;46.03
60646;BME280;46462;32.608;-117.032;2022-10-16T06:02:42;99354.57;;;26.83;45.92
60646;BME280;46462;32.608;-117.032;2022-10-16T06:05:12;99350.89;;;26.80;45.91
60646;BME280;46462;32.608;-117.032;2022-10-16T06:07:42;99352.55;;;26.82;45.81
60646;BME280;46462;32.608;-117.032;2022-10-16T06:10:12;99347.98;;;26.81;45.89
60646;BME280;46462;32.608;-117.032;2022-10-16T06:12:42;99348.12;;;26.78;45.94
60646;BME280;46462;32.608;-117.032;2022-10-16T06:15:13;99352.69;;;26.79;45.97
60646;BME280;46462;32.608;-117.032;2022-10-16T06:17:43;99356.14;;;26.78;45.98
60646;BME280;46462;32.608;-117.032;2022-10-16T06:20:13;99357.18;;;26.73;46.06
60646;BME280;46462;32.608;-117.032;2022-10-16T06:22:43;99350.73;;;26.79;45.92
60646;BME280;46462;32.608;-117.032;2022-10-16T06:25:13;99348.85;;;26.75;45.99
60646;BME280;46462;32.608;-117.032;2022-10-16T06:27:43;99346.66;;;26.75;46.00
60646;BME280;46462;32.608;-117.032;2022-10-16T06:30:13;99339.22;;;26.73;46.08
60646;BME280;46462;32.608;-117.032;2022-10-16T06:32:43;99333.89;;;26.77;45.90
60646;BME280;46462;32.608;-117.032;2022-10-16T06:35:14;99334.65;;;26.72;46.06
60646;BME280;46462;32.608;-117.032;2022-10-16T06:37:44;99329.04;;;26.73;45.97
60646;BME280;46462;32.608;-117.032;2022-10-16T06:40:14;99325.42;;;26.74;45.99
60646;BME280;46462;32.608;-117.032;2022-10-16T06:42:44;99321.42;;;26.72;46.08
60646;BME280;46462;32.608;-117.032;2022-10-16T06:45:14;99315.98;;;26.78;45.88
60646;BME280;46462;32.608;-117.032;2022-10-16T06:47:44;99316.26;;;26.73;46.03
60646;BME280;46462;32.608;-117.032;2022-10-16T06:50:15;99315.76;;;26.72;46.01
60646;BME280;46462;32.608;-117.032;2022-10-16T06:52:45;99312.75;;;26.75;45.92
60646;BME280;46462;32.608;-117.032;2022-10-16T06:55:15;99304.68;;;26.72;46.04
60646;BME280;46462;32.608;-117.032;2022-10-16T06:57:47;99305.40;;;26.68;46.13
60646;BME280;46462;32.608;-117.032;2022-10-16T07:00:15;99310.75;;;26.68;46.05
60646;BME280;46462;32.608;-117.032;2022-10-16T07:02:45;99312.23;;;26.72;46.00
60646;BME280;46462;32.608;-117.032;2022-10-16T07:05:15;99311.23;;;26.71;46.00
60646;BME280;46462;32.608;-117.032;2022-10-16T07:07:45;99305.96;;;26.76;45.92
60646;BME280;46462;32.608;-117.032;2022-10-16T07:10:16;99308.34;;;26.76;45.88
60646;BME280;46462;32.608;-117.032;2022-10-16T07:12:46;99307.61;;;26.72;46.03
60646;BME280;46462;32.608;-117.032;2022-10-16T07:15:16;99305.18;;;26.73;45.90
60646;BME280;46462;32.608;-117.032;2022-10-16T07:17:46;99303.40;;;26.76;45.85
60646;BME280;46462;32.608;-117.032;2022-10-16T07:20:16;99304.21;;;26.72;45.96
60646;BME280;46462;32.608;-117.032;2022-10-16T07:22:46;99302.15;;;26.76;45.83
60646;BME280;46462;32.608;-117.032;2022-10-16T07:25:16;99302.03;;;26.78;45.77
60646;BME280;46462;32.608;-117.032;2022-10-16T07:27:46;99308.06;;;26.71;45.86
60646;BME280;46462;32.608;-117.032;2022-10-16T07:30:17;99309.28;;;26.68;46.03
60646;BME280;46462;32.608;-117.032;2022-10-16T07:32:47;99309.06;;;26.78;45.77
60646;BME280;46462;32.608;-117.032;2022-10-16T07:35:17;99302.87;;;26.76;45.75
60646;BME280;46462;32.608;-117.032;2022-10-16T07:37:47;99300.48;;;26.73;45.89
60646;BME280;46462;32.608;-117.032;2022-10-16T07:40:17;99301.40;;;26.67;45.99
60646;BME280;46462;32.608;-117.032;2022-10-16T07:42:47;99297.57;;;26.68;45.96
60646;BME280;46462;32.608;-117.032;2022-10-16T07:45:17;99298.29;;;26.69;45.94
60646;BME280;46462;32.608;-117.032;2022-10-16T07:47:47;99297.54;;;26.71;45.90
60646;BME280;46462;32.608;-117.032;2022-10-16T07:50:18;99301.80;;;26.73;45.86
60646;BME280;46462;32.608;-117.032;2022-10-16T07:52:48;99304.62;;;26.67;45.98
60646;BME280;46462;32.608;-117.032;2022-10-16T07:55:18;99305.53;;;26.66;46.05
60646;BME280;46462;32.608;-117.032;2022-10-16T07:57:48;99302.90;;;26.67;46.01
60646;BME280;46462;32.608;-117.032;2022-10-16T08:00:18;99300.56;;;26.64;46.06
60646;BME280;46462;32.608;-117.032;2022-10-16T08:02:48;99296.25;;;26.69;45.90
60646;BME280;46462;32.608;-117.032;2022-10-16T08:05:18;99303.51;;;26.66;45.98
60646;BME280;46462;32.608;-117.032;2022-10-16T08:07:49;99307.86;;;26.63;45.98
60646;BME280;46462;32.608;-117.032;2022-10-16T08:10:22;99309.74;;;26.64;46.04
60646;BME280;46462;32.608;-117.032;2022-10-16T08:12:49;99315.87;;;26.68;45.95
60646;BME280;46462;32.608;-117.032;2022-10-16T08:15:20;99319.98;;;26.63;46.04
60646;BME280;46462;32.608;-117.032;2022-10-16T08:17:56;99322.45;;;26.69;45.83
60646;BME280;46462;32.608;-117.032;2022-10-16T08:20:19;99324.22;;;26.64;46.05
60646;BME280;46462;32.608;-117.032;2022-10-16T08:22:49;99323.63;;;26.62;46.04
60646;BME280;46462;32.608;-117.032;2022-10-16T08:25:20;99326.41;;;26.65;45.97
60646;BME280;46462;32.608;-117.032;2022-10-16T08:27:50;99327.73;;;26.67;45.91
60646;BME280;46462;32.608;-117.032;2022-10-16T08:30:22;99328.99;;;26.68;45.91
60646;BME280;46462;32.608;-117.032;2022-10-16T08:32:52;99328.88;;;26.63;46.05
60646;BME280;46462;32.608;-117.032;2022-10-16T08:35:20;99331.08;;;26.62;46.04
60646;BME280;46462;32.608;-117.032;2022-10-16T08:37:50;99333.78;;;26.67;45.82
60646;BME280;46462;32.608;-117.032;2022-10-16T08:40:23;99336.86;;;26.64;46.00
60646;BME280;46462;32.608;-117.032;2022-10-16T08:43:04;99335.79;;;26.69;45.87
60646;BME280;46462;32.608;-117.032;2022-10-16T08:45:27;99336.90;;;26.71;45.73
60646;BME280;46462;32.608;-117.032;2022-10-16T08:47:59;99340.97;;;26.67;45.84
60646;BME280;46462;32.608;-117.032;2022-10-16T08:50:24;99348.59;;;26.71;45.74
60646;BME280;46462;32.608;-117.032;2022-10-16T08:52:51;99349.66;;;26.65;45.80
60646;BME280;46462;32.608;-117.032;2022-10-16T08:55:30;99349.45;;;26.65;45.90
60646;BME280;46462;32.608;-117.032;2022-10-16T08:57:52;99348.21;;;26.62;45.94
60646;BME280;46462;32.608;-117.032;2022-10-16T09:00:22;99344.66;;;26.58;46.09
60646;BME280;46462;32.608;-117.032;2022-10-16T09:02:55;99343.72;;;26.61;46.03
60646;BME280;46462;32.608;-117.032;2022-10-16T09:05:33;99339.61;;;26.67;45.82
60646;BME280;46462;32.608;-117.032;2022-10-16T09:08:01;99343.83;;;26.63;45.92
60646;BME280;46462;32.608;-117.032;2022-10-16T09:10:34;99344.37;;;26.54;46.15
60646;BME280;46462;32.608;-117.032;2022-10-16T09:12:56;99344.15;;;26.56;46.04
60646;BME280;46462;32.608;-117.032;2022-10-16T09:15:30;99348.16;;;26.65;45.83
60646;BME280;46462;32.608;-117.032;2022-10-16T09:18:01;99350.69;;;26.62;45.89
60646;BME280;46462;32.608;-117.032;2022-10-16T09:20:29;99352.88;;;26.63;45.89
60646;BME280;46462;32.608;-117.032;2022-10-16T09:22:55;99346.38;;;26.64;45.74
60646;BME280;46462;32.608;-117.032;2022-10-16T09:25:23;99339.65;;;26.64;45.84
60646;BME280;46462;32.608;-117.032;2022-10-16T09:27:54;99342.26;;;26.57;45.99
60646;BME280;46462;32.608;-117.032;2022-10-16T09:30:27;99343.78;;;26.57;46.03
60646;BME280;46462;32.608;-117.032;2022-10-16T09:32:54;99345.65;;;26.55;46.04
60646;BME280;46462;32.608;-117.032;2022-10-16T09:35:31;99344.46;;;26.55;46.11
60646;BME280;46462;32.608;-117.032;2022-10-16T09:37:55;99340.99;;;26.59;45.89
60646;BME280;46462;32.608;-117.032;2022-10-16T09:40:28;99335.34;;;26.54;46.01
60646;BME280;46462;32.608;-117.032;2022-10-16T09:43:01;99333.04;;;26.59;45.83
60646;BME280;46462;32.608;-117.032;2022-10-16T09:45:24;99332.91;;;26.56;45.93
60646;BME280;46462;32.608;-117.032;2022-10-16T09:47:54;99325.34;;;26.55;45.91
60646;BME280;46462;32.608;-117.032;2022-10-16T09:50:26;99317.89;;;26.52;46.03
60646;BME280;46462;32.608;-117.032;2022-10-16T09:55:25;99321.52;;;26.52;46.01
60646;BME280;46462;32.608;-117.032;2022-10-16T09:57:55;99317.57;;;26.60;45.76
60646;BME280;46462;32.608;-117.032;2022-10-16T10:00:25;99320.92;;;26.55;45.89
60646;BME280;46462;32.608;-117.032;2022-10-16T10:02:55;99323.12;;;26.53;45.90
60646;BME280;46462;32.608;-117.032;2022-10-16T10:05:27;99325.71;;;26.52;45.96
60646;BME280;46462;32.608;-117.032;2022-10-16T10:07:57;99321.09;;;26.53;45.99
60646;BME280;46462;32.608;-117.032;2022-10-16T10:10:27;99318.62;;;26.49;46.06
60646;BME280;46462;32.608;-117.032;2022-10-16T10:12:57;99321.54;;;26.49;46.02
60646;BME280;46462;32.608;-117.032;2022-10-16T10:15:29;99326.53;;;26.50;45.94
60646;BME280;46462;32.608;-117.032;2022-10-16T10:17:57;99333.49;;;26.59;45.76
60646;BME280;46462;32.608;-117.032;2022-10-16T10:20:28;99334.94;;;26.54;45.90
60646;BME280;46462;32.608;-117.032;2022-10-16T10:22:56;99331.71;;;26.55;45.79
60646;BME280;46462;32.608;-117.032;2022-10-16T10:25:36;99331.87;;;26.51;45.93
60646;BME280;46462;32.608;-117.032;2022-10-16T10:28:09;99327.21;;;26.54;45.86
60646;BME280;46462;32.608;-117.032;2022-10-16T10:30:32;99325.25;;;26.55;45.76
60646;BME280;46462;32.608;-117.032;2022-10-16T10:33:09;99323.46;;;26.52;45.88
60646;BME280;46462;32.608;-117.032;2022-10-16T10:35:32;99321.88;;;26.53;45.77
60646;BME280;46462;32.608;-117.032;2022-10-16T10:38:06;99316.89;;;26.54;45.82
60646;BME280;46462;32.608;-117.032;2022-10-16T10:40:37;99318.35;;;26.49;45.83
60646;BME280;46462;32.608;-117.032;2022-10-16T10:43:03;99323.87;;;26.49;45.97
60646;BME280;46462;32.608;-117.032;2022-10-16T10:45:32;99328.65;;;26.48;45.97
60646;BME280;46462;32.608;-117.032;2022-10-16T10:48:17;99327.46;;;26.50;45.86
60646;BME280;46462;32.608;-117.032;2022-10-16T10:50:34;99332.93;;;26.51;45.82
60646;BME280;46462;32.608;-117.032;2022-10-16T10:53:05;99331.58;;;26.49;45.90
60646;BME280;46462;32.608;-117.032;2022-10-16T10:55:37;99323.76;;;26.50;45.80
60646;BME280;46462;32.608;-117.032;2022-10-16T11:00:37;99319.45;;;26.46;45.96
60646;BME280;46462;32.608;-117.032;2022-10-16T11:03:06;99322.73;;;26.48;45.88
60646;BME280;46462;32.608;-117.032;2022-10-16T11:05:37;99331.40;;;26.56;45.68
60646;BME280;46462;32.608;-117.032;2022-10-16T11:08:02;99331.84;;;26.52;45.78
60646;BME280;46462;32.608;-117.032;2022-10-16T11:10:35;99333.73;;;26.46;45.87
60646;BME280;46462;32.608;-117.032;2022-10-16T11:13:06;99334.90;;;26.53;45.61
60646;BME280;46462;32.608;-117.032;2022-10-16T11:15:31;99331.97;;;26.45;45.92
60646;BME280;46462;32.608;-117.032;2022-10-16T11:18:05;99340.66;;;26.44;45.92
60646;BME280;46462;32.608;-117.032;2022-10-16T11:20:32;99346.95;;;26.48;45.83
60646;BME280;46462;32.608;-117.032;2022-10-16T11:23:06;99344.94;;;26.50;45.79
60646;BME280;46462;32.608;-117.032;2022-10-16T11:25:31;99348.20;;;26.43;45.94
60646;BME280;46462;32.608;-117.032;2022-10-16T11:28:04;99349.54;;;26.38;46.08
60646;BME280;46462;32.608;-117.032;2022-10-16T11:30:33;99343.91;;;26.44;45.88
60646;BME280;46462;32.608;-117.032;2022-10-16T11:33:09;99346.97;;;26.48;45.78
60646;BME280;46462;32.608;-117.032;2022-10-16T11:35:39;99348.92;;;26.43;45.84
60646;BME280;46462;32.608;-117.032;2022-10-16T11:38:03;99351.66;;;26.49;45.73
60646;BME280;46462;32.608;-117.032;2022-10-16T11:40:32;99349.58;;;26.47;45.80
60646;BME280;46462;32.608;-117.032;2022-10-16T11:43:08;99353.62;;;26.42;45.90
60646;BME280;46462;32.608;-117.032;2022-10-16T11:45:36;99365.54;;;26.36;46.08
60646;BME280;46462;32.608;-117.032;2022-10-16T11:48:07;99370.77;;;26.41;45.89
60646;BME280;46462;32.608;-117.032;2022-10-16T11:50:36;99373.74;;;26.43;45.88
60646;BME280;46462;32.608;-117.032;2022-10-16T11:53:09;99373.44;;;26.48;45.72
60646;BME280;46462;32.608;-117.032;2022-10-16T11:55:35;99374.74;;;26.43;45.86
60646;BME280;46462;32.608;-117.032;2022-10-16T11:58:06;99378.61;;;26.44;45.86
60646;BME280;46462;32.608;-117.032;2022-10-16T12:00:38;99379.68;;;26.45;45.83
60646;BME280;46462;32.608;-117.032;2022-10-16T12:03:10;99374.28;;;26.44;45.79
60646;BME280;46462;32.608;-117.032;2022-10-16T12:05:44;99373.55;;;26.44;45.83
60646;BME280;46462;32.608;-117.032;2022-10-16T12:08:09;99376.82;;;26.41;45.82
60646;BME280;46462;32.608;-117.032;2022-10-16T12:10:33;99376.28;;;26.41;45.88
60646;BME280;46462;32.608;-117.032;2022-10-16T12:13:03;99376.49;;;26.44;45.75
60646;BME280;46462;32.608;-117.032;2022-10-16T12:15:34;99373.62;;;26.48;45.66
60646;BME280;46462;32.608;-117.032;2022-10-16T12:18:03;99371.65;;;26.42;45.79
60646;BME280;46462;32.608;-117.032;2022-10-16T12:20:34;99371.79;;;26.43;45.80
60646;BME280;46462;32.608;-117.032;2022-10-16T12:23:05;99374.88;;;26.49;45.60
60646;BME280;46462;32.608;-117.032;2022-10-16T12:25:35;99378.91;;;26.45;45.71
60646;BME280;46462;32.608;-117.032;2022-10-16T12:28:06;99381.62;;;26.47;45.61
60646;BME280;46462;32.608;-117.032;2022-10-16T12:30:35;99381.36;;;26.42;45.71
60646;BME280;46462;32.608;-117.032;2022-10-16T12:33:05;99382.99;;;26.39;45.82
60646;BME280;46462;32.608;-117.032;2022-10-16T12:35:35;99387.92;;;26.35;45.89
60646;BME280;46462;32.608;-117.032;2022-10-16T12:38:08;99396.78;;;26.38;45.89
60646;BME280;46462;32.608;-117.032;2022-10-16T12:40:36;99403.46;;;26.39;45.80
60646;BME280;46462;32.608;-117.032;2022-10-16T12:43:13;99405.13;;;26.38;45.86
60646;BME280;46462;32.608;-117.032;2022-10-16T12:45:35;99405.45;;;26.37;45.87
60646;BME280;46462;32.608;-117.032;2022-10-16T12:50:36;99405.85;;;26.33;46.02
60646;BME280;46462;32.608;-117.032;2022-10-16T12:55:42;99401.65;;;26.32;45.95